Grass Valley, Oregon
Current Conditions -  °F | °C
As of 12:53 PM on Friday 31 Oct 2014 (Local Time) from KDLS Reporting Station
Few Clouds Few Clouds  
Wind Chill: 14°   Ceiling: Unl
Heat Index: 14°   Visibility: 10mi
Dew Point:   Wind: 12mph
Humidity: 67%   Direction: 280°W
Pressure: 29.82"   Gusts: NA
Location:  45.36°N, 120.79°W
Report Text: KDLS 311953Z AUTO 28010KT 10SM FEW060 FEW110 14/08 A2982 RMK AO2 SLP097 T01390078
Loading
Personal Weather Stations






























Interactive Weather Map
Tropical Storm Tracking
New forecast layout! Learn more

10-Day Weather Forecast

Advertisements
Track Severe Weather on mobile